Aviation Digital Data Service (ADDS)

Output produced by METARs form (1823 UTC 22 November 2017)
found at http://www.aviationweather.gov/adds/metars/
 
GVAC 221800Z 06012KT 9999 FEW014 BKN200 26/19 Q1012 NOSIG
TAF GVAC 221700Z 2218/2324 04010KT 9999 SCT014 
     TEMPO 2300/2306 VRB05KT 
     PROB30 
     TEMPO 2318/2324 -SHRA FEW014 BKN070
       
GVBA 221800Z 03014KT 9999 FEW014 SCT100 BKN200 26/20 Q1012 NOSIG
TAF GVBA 221100Z 2212/2318 03010KT 9999 FEW014
       
GVSV 221800Z 06020G31KT 9999 FEW022 BKN200 27/19 Q1012 NOSIG
TAF GVSV 221700Z 2218/2324 06015KT 9999 FEW023 
     TEMPO 2303/2309 06005KT 
     PROB30 
     TEMPO 2318/2324 -SHRA FEW023 BKN070